sensor_id;sensor_type;location;lat;lon;timestamp;P1;durP1;ratioP1;P2;durP2;ratioP2
61527;SDS011;47395;42.032;-8.634;2023-03-01T00:00:08;1254.13;;;999.90;;
61527;SDS011;47395;42.032;-8.634;2023-03-01T00:02:11;1280.50;;;999.90;;
61527;SDS011;47395;42.032;-8.634;2023-03-01T00:04:12;1267.47;;;999.90;;
61527;SDS011;47395;42.032;-8.634;2023-03-01T00:06:13;1317.97;;;999.90;;
61527;SDS011;47395;42.032;-8.634;2023-03-01T00:08:14;1384.65;;;999.90;;
61527;SDS011;47395;42.032;-8.634;2023-03-01T00:10:15;1250.90;;;999.90;;
61527;SDS011;47395;42.032;-8.634;2023-03-01T00:12:16;1282.80;;;999.90;;
61527;SDS011;47395;42.032;-8.634;2023-03-01T00:14:17;1292.65;;;999.90;;
61527;SDS011;47395;42.032;-8.634;2023-03-01T00:16:20;1280.70;;;999.90;;
61527;SDS011;47395;42.032;-8.634;2023-03-01T00:18:23;1282.10;;;999.90;;
61527;SDS011;47395;42.032;-8.634;2023-03-01T00:20:23;1281.47;;;999.90;;
61527;SDS011;47395;42.032;-8.634;2023-03-01T00:24:28;1210.47;;;999.90;;
61527;SDS011;47395;42.032;-8.634;2023-03-01T00:26:29;1262.38;;;999.90;;
61527;SDS011;47395;42.032;-8.634;2023-03-01T00:30:32;1201.80;;;999.90;;
61527;SDS011;47395;42.032;-8.634;2023-03-01T00:32:33;1253.35;;;999.90;;
61527;SDS011;47395;42.032;-8.634;2023-03-01T00:34:34;1245.07;;;999.90;;
61527;SDS011;47395;42.032;-8.634;2023-03-01T00:36:36;1244.05;;;999.90;;
61527;SDS011;47395;42.032;-8.634;2023-03-01T00:38:39;1271.60;;;999.90;;
61527;SDS011;47395;42.032;-8.634;2023-03-01T00:40:41;1285.45;;;999.90;;
61527;SDS011;47395;42.032;-8.634;2023-03-01T00:42:41;1307.15;;;999.90;;
61527;SDS011;47395;42.032;-8.634;2023-03-01T00:44:42;1297.68;;;999.90;;
61527;SDS011;47395;42.032;-8.634;2023-03-01T00:46:44;1245.75;;;999.90;;
61527;SDS011;47395;42.032;-8.634;2023-03-01T00:48:45;1262.72;;;999.90;;
61527;SDS011;47395;42.032;-8.634;2023-03-01T00:50:46;1258.00;;;999.90;;
61527;SDS011;47395;42.032;-8.634;2023-03-01T00:52:47;1276.72;;;999.90;;
61527;SDS011;47395;42.032;-8.634;2023-03-01T00:54:52;1242.55;;;999.90;;
61527;SDS011;47395;42.032;-8.634;2023-03-01T00:56:53;1290.28;;;999.90;;
61527;SDS011;47395;42.032;-8.634;2023-03-01T00:58:54;1251.78;;;999.90;;
61527;SDS011;47395;42.032;-8.634;2023-03-01T01:00:54;1272.50;;;999.90;;
61527;SDS011;47395;42.032;-8.634;2023-03-01T01:02:55;1271.57;;;999.90;;
61527;SDS011;47395;42.032;-8.634;2023-03-01T01:04:56;1264.50;;;999.90;;
61527;SDS011;47395;42.032;-8.634;2023-03-01T01:06:58;1251.32;;;999.90;;
61527;SDS011;47395;42.032;-8.634;2023-03-01T01:08:59;1252.75;;;999.90;;
61527;SDS011;47395;42.032;-8.634;2023-03-01T01:11:00;1258.82;;;999.90;;
61527;SDS011;47395;42.032;-8.634;2023-03-01T01:13:01;1262.13;;;999.90;;
61527;SDS011;47395;42.032;-8.634;2023-03-01T01:15:03;1272.60;;;999.90;;
61527;SDS011;47395;42.032;-8.634;2023-03-01T01:17:04;1281.10;;;999.90;;
61527;SDS011;47395;42.032;-8.634;2023-03-01T01:19:05;1263.78;;;999.90;;
61527;SDS011;47395;42.032;-8.634;2023-03-01T01:21:08;1292.50;;;999.90;;
61527;SDS011;47395;42.032;-8.634;2023-03-01T01:23:10;1277.90;;;999.90;;
61527;SDS011;47395;42.032;-8.634;2023-03-01T01:27:12;1192.53;;;999.90;;
61527;SDS011;47395;42.032;-8.634;2023-03-01T01:29:13;1223.65;;;999.90;;
61527;SDS011;47395;42.032;-8.634;2023-03-01T01:31:14;1246.38;;;999.90;;
61527;SDS011;47395;42.032;-8.634;2023-03-01T01:33:16;1260.18;;;999.90;;
61527;SDS011;47395;42.032;-8.634;2023-03-01T01:37:18;1194.75;;;999.90;;
61527;SDS011;47395;42.032;-8.634;2023-03-01T01:39:20;1244.97;;;999.90;;
61527;SDS011;47395;42.032;-8.634;2023-03-01T01:41:22;1235.10;;;999.90;;
61527;SDS011;47395;42.032;-8.634;2023-03-01T01:43:25;1266.03;;;999.90;;
61527;SDS011;47395;42.032;-8.634;2023-03-01T01:45:32;1271.22;;;999.90;;
61527;SDS011;47395;42.032;-8.634;2023-03-01T01:47:35;1249.05;;;999.90;;
61527;SDS011;47395;42.032;-8.634;2023-03-01T01:51:40;1165.57;;;999.90;;
61527;SDS011;47395;42.032;-8.634;2023-03-01T01:53:44;1188.72;;;999.90;;
61527;SDS011;47395;42.032;-8.634;2023-03-01T01:55:51;1261.18;;;999.90;;
61527;SDS011;47395;42.032;-8.634;2023-03-01T01:57:56;1248.43;;;999.90;;
61527;SDS011;47395;42.032;-8.634;2023-03-01T02:00:12;1232.32;;;999.90;;
61527;SDS011;47395;42.032;-8.634;2023-03-01T02:02:17;1219.65;;;999.90;;
61527;SDS011;47395;42.032;-8.634;2023-03-01T02:04:19;1242.53;;;999.90;;
61527;SDS011;47395;42.032;-8.634;2023-03-01T02:06:22;1252.50;;;999.90;;
61527;SDS011;47395;42.032;-8.634;2023-03-01T02:08:31;1264.70;;;999.90;;
61527;SDS011;47395;42.032;-8.634;2023-03-01T02:10:35;1254.78;;;999.90;;
61527;SDS011;47395;42.032;-8.634;2023-03-01T02:12:37;1242.00;;;999.90;;
61527;SDS011;47395;42.032;-8.634;2023-03-01T02:14:39;1238.05;;;999.90;;
61527;SDS011;47395;42.032;-8.634;2023-03-01T02:18:42;1199.03;;;999.90;;
61527;SDS011;47395;42.032;-8.634;2023-03-01T02:20:54;1207.03;;;999.90;;
61527;SDS011;47395;42.032;-8.634;2023-03-01T02:23:17;1184.82;;;999.90;;
61527;SDS011;47395;42.032;-8.634;2023-03-01T02:26:04;1255.03;;;999.90;;
61527;SDS011;47395;42.032;-8.634;2023-03-01T02:30:46;1221.40;;;999.90;;
61527;SDS011;47395;42.032;-8.634;2023-03-01T02:33:08;1226.07;;;999.90;;
61527;SDS011;47395;42.032;-8.634;2023-03-01T02:37:13;1156.90;;;999.90;;
61527;SDS011;47395;42.032;-8.634;2023-03-01T02:39:22;1258.40;;;999.90;;
61527;SDS011;47395;42.032;-8.634;2023-03-01T02:41:27;1246.78;;;999.90;;
61527;SDS011;47395;42.032;-8.634;2023-03-01T02:43:31;1243.40;;;999.90;;
61527;SDS011;47395;42.032;-8.634;2023-03-01T02:45:33;1228.60;;;999.90;;
61527;SDS011;47395;42.032;-8.634;2023-03-01T02:49:35;1212.03;;;999.90;;
61527;SDS011;47395;42.032;-8.634;2023-03-01T02:56:27;1220.22;;;999.90;;
61527;SDS011;47395;42.032;-8.634;2023-03-01T02:58:29;1210.25;;;999.90;;
61527;SDS011;47395;42.032;-8.634;2023-03-01T03:00:31;1214.28;;;999.90;;
61527;SDS011;47395;42.032;-8.634;2023-03-01T03:02:40;1221.07;;;999.90;;
61527;SDS011;47395;42.032;-8.634;2023-03-01T03:04:50;1175.47;;;999.90;;
61527;SDS011;47395;42.032;-8.634;2023-03-01T03:08:52;1193.47;;;999.90;;
61527;SDS011;47395;42.032;-8.634;2023-03-01T03:10:53;1211.88;;;999.90;;
61527;SDS011;47395;42.032;-8.634;2023-03-01T03:12:55;1235.30;;;999.90;;
61527;SDS011;47395;42.032;-8.634;2023-03-01T03:14:57;1209.00;;;999.90;;
61527;SDS011;47395;42.032;-8.634;2023-03-01T03:18:58;1143.03;;;999.90;;
61527;SDS011;47395;42.032;-8.634;2023-03-01T03:21:08;1202.72;;;999.90;;
61527;SDS011;47395;42.032;-8.634;2023-03-01T03:23:11;1198.53;;;999.90;;
61527;SDS011;47395;42.032;-8.634;2023-03-01T03:25:13;1217.10;;;999.90;;
61527;SDS011;47395;42.032;-8.634;2023-03-01T03:27:14;1182.38;;;999.90;;
61527;SDS011;47395;42.032;-8.634;2023-03-01T03:31:15;1142.35;;;999.90;;
61527;SDS011;47395;42.032;-8.634;2023-03-01T03:35:17;1141.68;;;999.90;;
61527;SDS011;47395;42.032;-8.634;2023-03-01T03:37:23;1208.28;;;999.90;;
61527;SDS011;47395;42.032;-8.634;2023-03-01T03:39:42;1184.72;;;999.90;;
61527;SDS011;47395;42.032;-8.634;2023-03-01T03:43:43;1126.38;;;999.90;;
61527;SDS011;47395;42.032;-8.634;2023-03-01T03:49:46;1108.90;;;999.90;;
61527;SDS011;47395;42.032;-8.634;2023-03-01T03:53:48;1089.45;;;993.53;;
61527;SDS011;47395;42.032;-8.634;2023-03-01T03:57:49;1108.28;;;998.38;;
61527;SDS011;47395;42.032;-8.634;2023-03-01T03:59:51;1190.55;;;999.90;;
61527;SDS011;47395;42.032;-8.634;2023-03-01T17:42:26;1246.70;;;999.90;;
61527;SDS011;47395;42.032;-8.634;2023-03-01T17:44:28;1432.40;;;999.90;;
61527;SDS011;47395;42.032;-8.634;2023-03-01T17:46:29;1516.28;;;999.90;;
61527;SDS011;47395;42.032;-8.634;2023-03-01T17:48:30;1466.72;;;999.90;;
61527;SDS011;47395;42.032;-8.634;2023-03-01T17:50:30;1484.35;;;999.90;;
61527;SDS011;47395;42.032;-8.634;2023-03-01T17:52:32;1520.85;;;999.90;;
61527;SDS011;47395;42.032;-8.634;2023-03-01T17:54:33;1593.38;;;999.90;;
61527;SDS011;47395;42.032;-8.634;2023-03-01T17:56:33;1520.97;;;999.90;;
61527;SDS011;47395;42.032;-8.634;2023-03-01T17:58:37;1517.85;;;999.90;;
61527;SDS011;47395;42.032;-8.634;2023-03-01T18:00:40;1574.53;;;999.90;;
61527;SDS011;47395;42.032;-8.634;2023-03-01T18:02:41;1531.30;;;999.90;;
61527;SDS011;47395;42.032;-8.634;2023-03-01T18:04:42;1534.22;;;999.90;;
61527;SDS011;47395;42.032;-8.634;2023-03-01T18:06:43;1547.60;;;999.90;;
61527;SDS011;47395;42.032;-8.634;2023-03-01T18:08:44;1497.47;;;999.90;;
61527;SDS011;47395;42.032;-8.634;2023-03-01T18:10:46;1576.95;;;999.90;;
61527;SDS011;47395;42.032;-8.634;2023-03-01T18:12:46;1573.18;;;999.90;;
61527;SDS011;47395;42.032;-8.634;2023-03-01T18:14:47;1568.82;;;999.90;;
61527;SDS011;47395;42.032;-8.634;2023-03-01T18:16:52;1575.40;;;999.90;;
61527;SDS011;47395;42.032;-8.634;2023-03-01T18:18:53;1574.90;;;999.90;;
61527;SDS011;47395;42.032;-8.634;2023-03-01T18:20:56;1546.00;;;999.90;;
61527;SDS011;47395;42.032;-8.634;2023-03-01T18:22:57;1471.90;;;999.90;;
61527;SDS011;47395;42.032;-8.634;2023-03-01T18:24:59;1484.47;;;999.90;;
61527;SDS011;47395;42.032;-8.634;2023-03-01T18:26:59;1527.47;;;999.90;;
61527;SDS011;47395;42.032;-8.634;2023-03-01T18:29:00;1499.80;;;999.90;;
61527;SDS011;47395;42.032;-8.634;2023-03-01T18:31:07;1576.55;;;999.90;;
61527;SDS011;47395;42.032;-8.634;2023-03-01T18:33:10;1568.78;;;999.90;;
61527;SDS011;47395;42.032;-8.634;2023-03-01T18:35:11;1516.15;;;999.90;;
61527;SDS011;47395;42.032;-8.634;2023-03-01T18:37:11;1462.15;;;999.90;;
61527;SDS011;47395;42.032;-8.634;2023-03-01T18:39:12;1503.82;;;999.90;;
61527;SDS011;47395;42.032;-8.634;2023-03-01T18:41:14;1563.60;;;999.90;;
61527;SDS011;47395;42.032;-8.634;2023-03-01T18:43:15;1529.25;;;999.90;;
61527;SDS011;47395;42.032;-8.634;2023-03-01T18:45:16;1528.18;;;999.90;;
61527;SDS011;47395;42.032;-8.634;2023-03-01T18:47:18;1560.70;;;999.90;;
61527;SDS011;47395;42.032;-8.634;2023-03-01T18:49:19;1571.78;;;999.90;;
61527;SDS011;47395;42.032;-8.634;2023-03-01T18:51:21;1533.78;;;999.90;;
61527;SDS011;47395;42.032;-8.634;2023-03-01T18:53:24;1578.53;;;999.90;;
61527;SDS011;47395;42.032;-8.634;2023-03-01T18:55:25;1541.90;;;999.90;;
61527;SDS011;47395;42.032;-8.634;2023-03-01T18:57:26;1514.53;;;999.90;;
61527;SDS011;47395;42.032;-8.634;2023-03-01T18:59:27;1501.43;;;999.90;;
61527;SDS011;47395;42.032;-8.634;2023-03-01T19:01:29;1603.85;;;999.90;;
61527;SDS011;47395;42.032;-8.634;2023-03-01T19:03:32;1458.15;;;999.90;;
61527;SDS011;47395;42.032;-8.634;2023-03-01T19:05:34;1476.20;;;999.90;;
61527;SDS011;47395;42.032;-8.634;2023-03-01T19:07:35;1504.68;;;999.90;;
61527;SDS011;47395;42.032;-8.634;2023-03-01T19:09:36;1419.85;;;999.90;;
61527;SDS011;47395;42.032;-8.634;2023-03-01T19:11:36;1423.75;;;999.90;;
61527;SDS011;47395;42.032;-8.634;2023-03-01T19:13:38;1403.45;;;999.90;;
61527;SDS011;47395;42.032;-8.634;2023-03-01T19:15:39;1470.72;;;999.90;;
61527;SDS011;47395;42.032;-8.634;2023-03-01T19:17:41;1401.53;;;999.90;;
61527;SDS011;47395;42.032;-8.634;2023-03-01T19:19:42;1371.05;;;999.90;;
61527;SDS011;47395;42.032;-8.634;2023-03-01T19:21:43;1351.63;;;999.90;;
61527;SDS011;47395;42.032;-8.634;2023-03-01T19:23:44;1407.50;;;999.90;;
61527;SDS011;47395;42.032;-8.634;2023-03-01T19:25:45;1439.40;;;999.90;;
61527;SDS011;47395;42.032;-8.634;2023-03-01T19:27:46;1412.03;;;999.90;;
61527;SDS011;47395;42.032;-8.634;2023-03-01T19:29:48;1390.63;;;999.90;;
61527;SDS011;47395;42.032;-8.634;2023-03-01T19:31:49;1421.88;;;999.90;;
61527;SDS011;47395;42.032;-8.634;2023-03-01T19:33:50;1392.38;;;999.90;;
61527;SDS011;47395;42.032;-8.634;2023-03-01T19:35:52;1430.10;;;999.90;;
61527;SDS011;47395;42.032;-8.634;2023-03-01T19:37:53;1493.28;;;999.90;;
61527;SDS011;47395;42.032;-8.634;2023-03-01T19:39:54;1507.47;;;999.90;;
61527;SDS011;47395;42.032;-8.634;2023-03-01T19:41:55;1416.40;;;999.90;;
61527;SDS011;47395;42.032;-8.634;2023-03-01T19:43:56;1456.97;;;999.90;;
61527;SDS011;47395;42.032;-8.634;2023-03-01T19:45:57;1516.30;;;999.90;;
61527;SDS011;47395;42.032;-8.634;2023-03-01T19:47:58;1386.43;;;999.90;;
61527;SDS011;47395;42.032;-8.634;2023-03-01T19:49:59;1403.88;;;999.90;;
61527;SDS011;47395;42.032;-8.634;2023-03-01T19:52:00;1424.80;;;999.90;;
61527;SDS011;47395;42.032;-8.634;2023-03-01T19:54:01;1447.13;;;999.90;;
61527;SDS011;47395;42.032;-8.634;2023-03-01T19:56:03;1382.85;;;999.90;;
61527;SDS011;47395;42.032;-8.634;2023-03-01T19:58:05;1458.13;;;999.90;;
61527;SDS011;47395;42.032;-8.634;2023-03-01T20:00:07;1424.85;;;999.90;;
61527;SDS011;47395;42.032;-8.634;2023-03-01T20:02:15;1353.68;;;999.90;;
61527;SDS011;47395;42.032;-8.634;2023-03-01T20:04:16;1341.03;;;999.90;;
61527;SDS011;47395;42.032;-8.634;2023-03-01T20:06:17;1445.95;;;999.90;;
61527;SDS011;47395;42.032;-8.634;2023-03-01T20:08:20;1357.85;;;999.90;;
61527;SDS011;47395;42.032;-8.634;2023-03-01T20:10:22;1344.05;;;999.90;;
61527;SDS011;47395;42.032;-8.634;2023-03-01T20:12:27;1333.40;;;999.90;;
61527;SDS011;47395;42.032;-8.634;2023-03-01T20:14:27;1345.88;;;999.90;;
61527;SDS011;47395;42.032;-8.634;2023-03-01T20:16:28;1406.65;;;999.90;;
61527;SDS011;47395;42.032;-8.634;2023-03-01T20:18:29;1364.38;;;999.90;;
61527;SDS011;47395;42.032;-8.634;2023-03-01T20:20:30;1438.88;;;999.90;;
61527;SDS011;47395;42.032;-8.634;2023-03-01T20:22:31;1356.28;;;999.90;;
61527;SDS011;47395;42.032;-8.634;2023-03-01T20:24:32;1463.47;;;999.90;;
61527;SDS011;47395;42.032;-8.634;2023-03-01T20:26:33;1419.40;;;999.90;;
61527;SDS011;47395;42.032;-8.634;2023-03-01T20:28:34;1351.18;;;999.90;;
61527;SDS011;47395;42.032;-8.634;2023-03-01T20:30:36;1350.43;;;999.90;;
61527;SDS011;47395;42.032;-8.634;2023-03-01T20:32:38;1391.40;;;999.90;;
61527;SDS011;47395;42.032;-8.634;2023-03-01T20:34:38;1417.32;;;999.90;;
61527;SDS011;47395;42.032;-8.634;2023-03-01T20:36:39;1446.90;;;999.90;;
61527;SDS011;47395;42.032;-8.634;2023-03-01T20:38:42;1335.38;;;999.90;;
61527;SDS011;47395;42.032;-8.634;2023-03-01T20:40:43;1372.60;;;999.90;;
61527;SDS011;47395;42.032;-8.634;2023-03-01T20:42:43;1414.20;;;999.90;;
61527;SDS011;47395;42.032;-8.634;2023-03-01T20:44:44;1426.10;;;999.90;;
61527;SDS011;47395;42.032;-8.634;2023-03-01T20:46:45;1338.32;;;999.90;;
61527;SDS011;47395;42.032;-8.634;2023-03-01T20:48:46;1339.00;;;999.90;;
61527;SDS011;47395;42.032;-8.634;2023-03-01T20:50:47;1299.82;;;999.90;;
61527;SDS011;47395;42.032;-8.634;2023-03-01T20:52:48;1337.18;;;999.90;;
61527;SDS011;47395;42.032;-8.634;2023-03-01T20:56:49;1272.72;;;999.90;;
61527;SDS011;47395;42.032;-8.634;2023-03-01T21:00:51;1262.22;;;999.90;;
61527;SDS011;47395;42.032;-8.634;2023-03-01T21:04:53;1245.80;;;999.90;;
61527;SDS011;47395;42.032;-8.634;2023-03-01T21:06:53;1266.13;;;999.90;;
61527;SDS011;47395;42.032;-8.634;2023-03-01T21:10:56;1199.85;;;999.90;;
61527;SDS011;47395;42.032;-8.634;2023-03-01T21:12:57;1271.30;;;999.90;;
61527;SDS011;47395;42.032;-8.634;2023-03-01T21:14:58;1269.75;;;999.90;;
61527;SDS011;47395;42.032;-8.634;2023-03-01T21:18:59;1258.30;;;999.90;;
61527;SDS011;47395;42.032;-8.634;2023-03-01T21:21:04;1299.78;;;999.90;;
61527;SDS011;47395;42.032;-8.634;2023-03-01T21:23:10;1277.32;;;999.90;;
61527;SDS011;47395;42.032;-8.634;2023-03-01T21:25:11;1329.05;;;999.90;;
61527;SDS011;47395;42.032;-8.634;2023-03-01T21:27:12;1286.05;;;999.90;;
61527;SDS011;47395;42.032;-8.634;2023-03-01T21:29:12;1297.72;;;999.90;;
61527;SDS011;47395;42.032;-8.634;2023-03-01T21:31:14;1288.22;;;999.90;;
61527;SDS011;47395;42.032;-8.634;2023-03-01T21:33:31;1302.90;;;999.90;;
61527;SDS011;47395;42.032;-8.634;2023-03-01T21:35:32;1301.88;;;999.90;;
61527;SDS011;47395;42.032;-8.634;2023-03-01T21:37:32;1342.93;;;999.90;;
61527;SDS011;47395;42.032;-8.634;2023-03-01T21:39:33;1371.57;;;999.90;;
61527;SDS011;47395;42.032;-8.634;2023-03-01T21:41:35;1357.43;;;999.90;;
61527;SDS011;47395;42.032;-8.634;2023-03-01T21:43:37;1291.55;;;999.90;;
61527;SDS011;47395;42.032;-8.634;2023-03-01T21:45:39;1336.03;;;999.90;;
61527;SDS011;47395;42.032;-8.634;2023-03-01T21:47:40;1329.35;;;999.90;;
61527;SDS011;47395;42.032;-8.634;2023-03-01T21:49:41;1305.15;;;999.90;;
61527;SDS011;47395;42.032;-8.634;2023-03-01T21:53:43;1268.82;;;999.90;;
61527;SDS011;47395;42.032;-8.634;2023-03-01T21:55:47;1321.68;;;999.90;;
61527;SDS011;47395;42.032;-8.634;2023-03-01T21:57:49;1308.05;;;999.90;;
61527;SDS011;47395;42.032;-8.634;2023-03-01T21:59:49;1295.00;;;999.90;;
61527;SDS011;47395;42.032;-8.634;2023-03-01T22:01:50;1306.70;;;999.90;;
61527;SDS011;47395;42.032;-8.634;2023-03-01T22:03:51;1319.18;;;999.90;;
61527;SDS011;47395;42.032;-8.634;2023-03-01T22:05:54;1309.35;;;999.90;;
61527;SDS011;47395;42.032;-8.634;2023-03-01T22:07:55;1300.88;;;999.90;;
61527;SDS011;47395;42.032;-8.634;2023-03-01T22:09:56;1315.45;;;999.90;;
61527;SDS011;47395;42.032;-8.634;2023-03-01T22:11:57;1291.30;;;999.90;;
61527;SDS011;47395;42.032;-8.634;2023-03-01T22:14:01;1281.65;;;999.90;;
61527;SDS011;47395;42.032;-8.634;2023-03-01T22:16:04;1327.20;;;999.90;;
61527;SDS011;47395;42.032;-8.634;2023-03-01T22:18:05;1296.10;;;999.90;;
61527;SDS011;47395;42.032;-8.634;2023-03-01T22:20:07;1310.05;;;999.90;;
61527;SDS011;47395;42.032;-8.634;2023-03-01T22:22:09;1316.20;;;999.90;;
61527;SDS011;47395;42.032;-8.634;2023-03-01T22:24:10;1304.55;;;999.90;;
61527;SDS011;47395;42.032;-8.634;2023-03-01T22:26:23;1291.57;;;999.90;;
61527;SDS011;47395;42.032;-8.634;2023-03-01T22:28:27;1296.15;;;999.90;;
61527;SDS011;47395;42.032;-8.634;2023-03-01T22:30:28;1307.25;;;999.90;;
61527;SDS011;47395;42.032;-8.634;2023-03-01T22:32:29;1287.18;;;999.90;;
61527;SDS011;47395;42.032;-8.634;2023-03-01T22:34:30;1307.40;;;999.90;;
61527;SDS011;47395;42.032;-8.634;2023-03-01T22:36:31;1285.32;;;999.90;;
61527;SDS011;47395;42.032;-8.634;2023-03-01T22:38:33;1283.85;;;999.90;;
61527;SDS011;47395;42.032;-8.634;2023-03-01T22:40:34;1279.47;;;999.90;;
61527;SDS011;47395;42.032;-8.634;2023-03-01T22:42:35;1297.55;;;999.90;;
61527;SDS011;47395;42.032;-8.634;2023-03-01T22:44:36;1275.65;;;999.90;;
61527;SDS011;47395;42.032;-8.634;2023-03-01T22:46:37;1307.82;;;999.90;;
61527;SDS011;47395;42.032;-8.634;2023-03-01T22:48:38;1301.20;;;999.90;;
61527;SDS011;47395;42.032;-8.634;2023-03-01T22:50:42;1283.15;;;999.90;;
61527;SDS011;47395;42.032;-8.634;2023-03-01T22:52:44;1281.90;;;999.90;;
61527;SDS011;47395;42.032;-8.634;2023-03-01T22:54:45;1282.35;;;999.90;;
61527;SDS011;47395;42.032;-8.634;2023-03-01T22:56:46;1254.75;;;999.90;;
61527;SDS011;47395;42.032;-8.634;2023-03-01T22:58:47;1291.85;;;999.90;;
61527;SDS011;47395;42.032;-8.634;2023-03-01T23:00:48;1313.15;;;999.90;;
61527;SDS011;47395;42.032;-8.634;2023-03-01T23:02:49;1320.25;;;999.90;;
61527;SDS011;47395;42.032;-8.634;2023-03-01T23:06:53;1275.60;;;999.90;;
61527;SDS011;47395;42.032;-8.634;2023-03-01T23:08:55;1257.10;;;999.90;;
61527;SDS011;47395;42.032;-8.634;2023-03-01T23:10:57;1262.43;;;999.90;;
61527;SDS011;47395;42.032;-8.634;2023-03-01T23:12:58;1242.18;;;999.90;;
61527;SDS011;47395;42.032;-8.634;2023-03-01T23:14:59;1289.38;;;999.90;;
61527;SDS011;47395;42.032;-8.634;2023-03-01T23:19:01;1247.90;;;999.90;;
61527;SDS011;47395;42.032;-8.634;2023-03-01T23:21:22;1278.05;;;999.90;;
61527;SDS011;47395;42.032;-8.634;2023-03-01T23:23:22;1279.63;;;999.90;;
61527;SDS011;47395;42.032;-8.634;2023-03-01T23:25:24;1285.90;;;999.90;;
61527;SDS011;47395;42.032;-8.634;2023-03-01T23:27:25;1270.70;;;999.90;;
61527;SDS011;47395;42.032;-8.634;2023-03-01T23:29:26;1279.00;;;999.90;;
61527;SDS011;47395;42.032;-8.634;2023-03-01T23:33:29;1222.68;;;999.90;;
61527;SDS011;47395;42.032;-8.634;2023-03-01T23:35:38;1217.03;;;999.90;;
61527;SDS011;47395;42.032;-8.634;2023-03-01T23:37:39;1246.32;;;999.90;;
61527;SDS011;47395;42.032;-8.634;2023-03-01T23:39:39;1290.15;;;999.90;;
61527;SDS011;47395;42.032;-8.634;2023-03-01T23:41:41;1290.45;;;999.90;;
61527;SDS011;47395;42.032;-8.634;2023-03-01T23:43:45;1287.68;;;999.90;;
61527;SDS011;47395;42.032;-8.634;2023-03-01T23:45:51;1298.90;;;999.90;;
61527;SDS011;47395;42.032;-8.634;2023-03-01T23:47:53;1323.80;;;999.90;;
61527;SDS011;47395;42.032;-8.634;2023-03-01T23:49:54;1323.97;;;999.90;;
61527;SDS011;47395;42.032;-8.634;2023-03-01T23:51:56;1292.90;;;999.90;;
61527;SDS011;47395;42.032;-8.634;2023-03-01T23:54:00;1282.65;;;999.90;;
61527;SDS011;47395;42.032;-8.634;2023-03-01T23:56:04;1275.30;;;999.90;;
61527;SDS011;47395;42.032;-8.634;2023-03-01T23:58:06;1298.35;;;999.90;;
